Caribou — WDI3596 — position and weather

sailwx.info

Track history (hours):
 
Tides and Currents Weather Stations Pressure Air Temp Water Temp Dewpoint Dewpoint Depression Visibility Wind Speed Wind Dir Waves Ship Positions

Caribou

Owner: Adriatic Marine LLC, Raceland, LA. More information available from US FCC via Universal Licensing System and Coast Guard Vessel Documentation Center.

Last reported at 2018-Jun-22 02:05 UTC. Time now 2018-Jun-23 00:57 UTC.
Position N 29°09' W 090°12'.

Length 59 m; draft 3.5 m.

Type: Cargo ship. MMSI: 367689970.

Date/timePositionNaut miles runAvg speedWind from/ knotsBaromVisibWave heightAir tempDewpointWater temp
2018-Jun-22 02:05N 29°09' W 090°12'1 3.3
2018-Jun-22 01:40N 29°08' W 090°13'30 5.0
2018-Jun-21 19:38N 29°21' W 090°44'1 5.1
2018-Jun-21 19:29N 29°21' W 090°44'2 5.1
2018-Jun-21 19:00N 29°24' W 090°44'3 6.8
2018-Jun-21 18:30N 29°27' W 090°43'4 7.0
2018-Jun-21 18:00N 29°31' W 090°43'3 5.6
2018-Jun-21 17:30N 29°33' W 090°42'2 3.4
2018-Jun-21 17:00N 29°35' W 090°43'0 0.2
2018-Jun-21 16:30N 29°35' W 090°43'0 0.0
2018-Jun-21 16:00N 29°35' W 090°43'0 0.0
2018-Jun-21 15:29N 29°35' W 090°43'0 0.0
2018-Jun-21 15:00N 29°35' W 090°43'0 0.0
2018-Jun-21 14:30N 29°35' W 090°43'1 1.8
2018-Jun-21 14:00N 29°34' W 090°43'2 3.1
2018-Jun-21 13:30N 29°33' W 090°42'3 6.8
2018-Jun-21 13:00N 29°29' W 090°43'4 7.0
2018-Jun-21 12:30N 29°26' W 090°43'3 6.4
2018-Jun-21 12:00N 29°23' W 090°44'  
2018-Jun-18 20:43N 29°00' W 090°34'4 8.4
2018-Jun-18 20:13N 29°05' W 090°35'18 6.3
2018-Jun-18 17:19N 29°21' W 090°44'2 6.1
2018-Jun-18 17:00N 29°23' W 090°44'3 6.6
2018-Jun-18 16:30N 29°26' W 090°43'4 7.3
2018-Jun-18 16:00N 29°30' W 090°43'3 6.2
2018-Jun-18 15:30N 29°33' W 090°42'2 4.6
2018-Jun-18 15:00N 29°35' W 090°43'0 0.3
2018-Jun-18 14:30N 29°35' W 090°43'0 0.0
2018-Jun-18 14:00N 29°35' W 090°43'0 0.0
2018-Jun-18 13:30N 29°35' W 090°43'0 0.0
2018-Jun-18 13:00N 29°35' W 090°43'0 0.0
2018-Jun-18 12:30N 29°35' W 090°43'0 0.0
2018-Jun-18 12:00N 29°35' W 090°43'0 0.0
2018-Jun-18 11:30N 29°35' W 090°43'0 0.2
2018-Jun-18 11:00N 29°35' W 090°43'2 3.1
2018-Jun-18 10:30N 29°33' W 090°43'3 6.1
2018-Jun-18 10:00N 29°30' W 090°43'4 7.0
2018-Jun-18 09:30N 29°27' W 090°43'4 6.8
2018-Jun-18 08:59N 29°23' W 090°44'  
Track history (hours):
 
Tides and Currents Weather Stations Pressure Air Temp Water Temp Dewpoint Dewpoint Depression Visibility Wind Speed Wind Dir Waves Ship Positions

Caribou

Owner: Adriatic Marine LLC, Raceland, LA. More information available from US FCC via Universal Licensing System and Coast Guard Vessel Documentation Center.

Last reported at 2018-Jun-22 02:05 UTC. Time now 2018-Jun-23 00:57 UTC.
Position N 29°09' W 090°12'.

Length 59 m; draft 3.5 m.

Type: Cargo ship. MMSI: 367689970.

Date/timePositionNaut miles runAvg speedWind from/ knotsBaromVisibWave heightAir tempDewpointWater temp
2018-Jun-22 02:05N 29°09' W 090°12'1 3.3
2018-Jun-22 01:40N 29°08' W 090°13'30 5.0
2018-Jun-21 19:38N 29°21' W 090°44'1 5.1
2018-Jun-21 19:29N 29°21' W 090°44'2 5.1
2018-Jun-21 19:00N 29°24' W 090°44'3 6.8
2018-Jun-21 18:30N 29°27' W 090°43'4 7.0
2018-Jun-21 18:00N 29°31' W 090°43'3 5.6
2018-Jun-21 17:30N 29°33' W 090°42'2 3.4
2018-Jun-21 17:00N 29°35' W 090°43'0 0.2
2018-Jun-21 16:30N 29°35' W 090°43'0 0.0
2018-Jun-21 16:00N 29°35' W 090°43'0 0.0
2018-Jun-21 15:29N 29°35' W 090°43'0 0.0
2018-Jun-21 15:00N 29°35' W 090°43'0 0.0
2018-Jun-21 14:30N 29°35' W 090°43'1 1.8
2018-Jun-21 14:00N 29°34' W 090°43'2 3.1
2018-Jun-21 13:30N 29°33' W 090°42'3 6.8
2018-Jun-21 13:00N 29°29' W 090°43'4 7.0
2018-Jun-21 12:30N 29°26' W 090°43'3 6.4
2018-Jun-21 12:00N 29°23' W 090°44'  
2018-Jun-18 20:43N 29°00' W 090°34'4 8.4
2018-Jun-18 20:13N 29°05' W 090°35'18 6.3
2018-Jun-18 17:19N 29°21' W 090°44'2 6.1
2018-Jun-18 17:00N 29°23' W 090°44'3 6.6
2018-Jun-18 16:30N 29°26' W 090°43'4 7.3
2018-Jun-18 16:00N 29°30' W 090°43'3 6.2
2018-Jun-18 15:30N 29°33' W 090°42'2 4.6
2018-Jun-18 15:00N 29°35' W 090°43'0 0.3
2018-Jun-18 14:30N 29°35' W 090°43'0 0.0
2018-Jun-18 14:00N 29°35' W 090°43'0 0.0
2018-Jun-18 13:30N 29°35' W 090°43'0 0.0
2018-Jun-18 13:00N 29°35' W 090°43'0 0.0
2018-Jun-18 12:30N 29°35' W 090°43'0 0.0
2018-Jun-18 12:00N 29°35' W 090°43'0 0.0
2018-Jun-18 11:30N 29°35' W 090°43'0 0.2
2018-Jun-18 11:00N 29°35' W 090°43'2 3.1
2018-Jun-18 10:30N 29°33' W 090°43'3 6.1
2018-Jun-18 10:00N 29°30' W 090°43'4 7.0
2018-Jun-18 09:30N 29°27' W 090°43'4 6.8
2018-Jun-18 08:59N 29°23' W 090°44'  

Dump ship's entire track history